sensor_id;sensor_type;location;lat;lon;timestamp;pressure;altitude;pressure_sealevel;temperature;humidity
21359;BME280;13506;50.852;20.632;2023-11-21T00:00:48;97280.84;;;6.79;100.00
21359;BME280;13506;50.852;20.632;2023-11-21T00:03:36;97276.28;;;6.70;100.00
21359;BME280;13506;50.852;20.632;2023-11-21T00:06:04;97279.22;;;6.65;100.00
21359;BME280;13506;50.852;20.632;2023-11-21T00:08:35;97279.09;;;6.56;100.00
21359;BME280;13506;50.852;20.632;2023-11-21T00:11:03;97277.28;;;6.45;100.00
21359;BME280;13506;50.852;20.632;2023-11-21T00:13:32;97274.41;;;6.37;100.00
21359;BME280;13506;50.852;20.632;2023-11-21T00:16:02;97280.34;;;6.50;100.00
21359;BME280;13506;50.852;20.632;2023-11-21T00:18:30;97282.22;;;6.48;100.00
21359;BME280;13506;50.852;20.632;2023-11-21T00:20:58;97286.00;;;6.44;100.00
21359;BME280;13506;50.852;20.632;2023-11-21T00:23:26;97288.25;;;6.48;100.00
21359;BME280;13506;50.852;20.632;2023-11-21T00:25:54;97282.72;;;6.53;100.00
21359;BME280;13506;50.852;20.632;2023-11-21T00:28:22;97285.78;;;6.47;100.00
21359;BME280;13506;50.852;20.632;2023-11-21T00:30:50;97290.84;;;6.48;100.00
21359;BME280;13506;50.852;20.632;2023-11-21T00:33:19;97295.47;;;6.45;100.00
21359;BME280;13506;50.852;20.632;2023-11-21T00:35:47;97285.59;;;6.37;100.00
21359;BME280;13506;50.852;20.632;2023-11-21T00:38:15;97280.97;;;6.29;100.00
21359;BME280;13506;50.852;20.632;2023-11-21T00:40:46;97279.22;;;6.30;100.00
21359;BME280;13506;50.852;20.632;2023-11-21T00:43:14;97276.34;;;6.22;100.00
21359;BME280;13506;50.852;20.632;2023-11-21T00:45:42;97280.13;;;6.29;100.00
21359;BME280;13506;50.852;20.632;2023-11-21T00:48:10;97281.91;;;6.28;100.00
21359;BME280;13506;50.852;20.632;2023-11-21T00:50:41;97286.31;;;6.39;100.00
21359;BME280;13506;50.852;20.632;2023-11-21T00:53:09;97292.97;;;6.43;100.00
21359;BME280;13506;50.852;20.632;2023-11-21T00:55:37;97296.75;;;6.51;100.00
21359;BME280;13506;50.852;20.632;2023-11-21T00:58:06;97294.06;;;6.52;100.00
21359;BME280;13506;50.852;20.632;2023-11-21T01:00:34;97299.63;;;6.59;100.00
21359;BME280;13506;50.852;20.632;2023-11-21T01:03:03;97290.69;;;6.63;100.00
21359;BME280;13506;50.852;20.632;2023-11-21T01:05:31;97289.03;;;6.62;100.00
21359;BME280;13506;50.852;20.632;2023-11-21T01:08:00;97286.81;;;6.68;100.00
21359;BME280;13506;50.852;20.632;2023-11-21T01:10:29;97277.13;;;6.71;100.00
21359;BME280;13506;50.852;20.632;2023-11-21T01:12:56;97281.97;;;6.75;100.00
21359;BME280;13506;50.852;20.632;2023-11-21T01:15:24;97286.03;;;6.79;100.00
21359;BME280;13506;50.852;20.632;2023-11-21T01:17:52;97279.13;;;6.78;100.00
21359;BME280;13506;50.852;20.632;2023-11-21T01:20:21;97291.25;;;6.79;100.00
21359;BME280;13506;50.852;20.632;2023-11-21T01:22:49;97293.59;;;6.82;100.00
21359;BME280;13506;50.852;20.632;2023-11-21T01:25:18;97300.56;;;6.82;100.00
21359;BME280;13506;50.852;20.632;2023-11-21T01:27:47;97292.66;;;6.83;100.00
21359;BME280;13506;50.852;20.632;2023-11-21T01:30:17;97292.44;;;6.86;100.00
21359;BME280;13506;50.852;20.632;2023-11-21T01:32:45;97292.31;;;6.88;100.00
21359;BME280;13506;50.852;20.632;2023-11-21T01:35:13;97293.25;;;6.87;100.00
21359;BME280;13506;50.852;20.632;2023-11-21T01:37:40;97293.25;;;6.87;100.00
21359;BME280;13506;50.852;20.632;2023-11-21T01:40:10;97293.97;;;6.89;100.00
21359;BME280;13506;50.852;20.632;2023-11-21T01:42:42;97292.44;;;6.86;100.00
21359;BME280;13506;50.852;20.632;2023-11-21T01:45:11;97284.56;;;6.75;100.00
21359;BME280;13506;50.852;20.632;2023-11-21T01:47:40;97293.19;;;6.76;100.00
21359;BME280;13506;50.852;20.632;2023-11-21T01:50:11;97293.31;;;6.74;100.00
21359;BME280;13506;50.852;20.632;2023-11-21T01:52:41;97283.34;;;6.68;100.00
21359;BME280;13506;50.852;20.632;2023-11-21T01:55:11;97294.59;;;6.68;100.00
21359;BME280;13506;50.852;20.632;2023-11-21T01:57:41;97299.56;;;6.72;100.00
21359;BME280;13506;50.852;20.632;2023-11-21T02:00:10;97283.03;;;6.73;100.00
21359;BME280;13506;50.852;20.632;2023-11-21T02:02:43;97298.38;;;6.64;100.00
21359;BME280;13506;50.852;20.632;2023-11-21T02:05:11;97291.75;;;6.72;100.00
21359;BME280;13506;50.852;20.632;2023-11-21T02:07:40;97288.97;;;6.75;100.00
21359;BME280;13506;50.852;20.632;2023-11-21T02:10:08;97297.78;;;6.72;100.00
21359;BME280;13506;50.852;20.632;2023-11-21T02:12:36;97295.78;;;6.76;100.00
21359;BME280;13506;50.852;20.632;2023-11-21T02:15:09;97302.47;;;6.80;100.00
21359;BME280;13506;50.852;20.632;2023-11-21T02:17:42;97300.56;;;6.82;100.00
21359;BME280;13506;50.852;20.632;2023-11-21T02:20:11;97305.53;;;6.85;100.00
21359;BME280;13506;50.852;20.632;2023-11-21T02:22:43;97297.53;;;6.88;100.00
21359;BME280;13506;50.852;20.632;2023-11-21T02:25:14;97299.06;;;6.91;100.00
21359;BME280;13506;50.852;20.632;2023-11-21T02:27:42;97305.09;;;6.91;100.00
21359;BME280;13506;50.852;20.632;2023-11-21T02:30:15;97298.13;;;6.92;100.00
21359;BME280;13506;50.852;20.632;2023-11-21T02:32:43;97304.25;;;6.91;100.00
21359;BME280;13506;50.852;20.632;2023-11-21T02:35:11;97306.03;;;6.90;100.00
21359;BME280;13506;50.852;20.632;2023-11-21T02:37:38;97303.44;;;6.90;100.00
21359;BME280;13506;50.852;20.632;2023-11-21T02:40:09;97304.97;;;6.93;100.00
21359;BME280;13506;50.852;20.632;2023-11-21T02:42:40;97299.78;;;6.93;100.00
21359;BME280;13506;50.852;20.632;2023-11-21T02:45:09;97304.88;;;6.94;100.00
21359;BME280;13506;50.852;20.632;2023-11-21T02:47:39;97310.06;;;6.94;100.00
21359;BME280;13506;50.852;20.632;2023-11-21T02:50:09;97316.00;;;6.96;100.00
21359;BME280;13506;50.852;20.632;2023-11-21T02:52:37;97311.00;;;6.93;100.00
21359;BME280;13506;50.852;20.632;2023-11-21T02:55:06;97313.59;;;6.93;100.00
21359;BME280;13506;50.852;20.632;2023-11-21T02:57:34;97322.34;;;6.92;100.00
21359;BME280;13506;50.852;20.632;2023-11-21T03:00:05;97324.25;;;6.90;100.00
21359;BME280;13506;50.852;20.632;2023-11-21T03:02:34;97320.91;;;6.88;100.00
21359;BME280;13506;50.852;20.632;2023-11-21T03:05:06;97326.31;;;6.85;100.00
21359;BME280;13506;50.852;20.632;2023-11-21T03:07:37;97326.22;;;6.86;100.00
21359;BME280;13506;50.852;20.632;2023-11-21T03:10:06;97320.69;;;6.91;100.00
21359;BME280;13506;50.852;20.632;2023-11-21T03:12:35;97322.56;;;6.89;100.00
21359;BME280;13506;50.852;20.632;2023-11-21T03:15:06;97324.25;;;6.90;100.00
21359;BME280;13506;50.852;20.632;2023-11-21T03:17:34;97328.47;;;6.91;100.00
21359;BME280;13506;50.852;20.632;2023-11-21T03:20:04;97321.53;;;6.92;100.00
21359;BME280;13506;50.852;20.632;2023-11-21T03:22:37;97319.75;;;6.92;100.00
21359;BME280;13506;50.852;20.632;2023-11-21T03:25:07;97322.56;;;6.89;100.00
21359;BME280;13506;50.852;20.632;2023-11-21T03:27:37;97321.75;;;6.88;100.00
21359;BME280;13506;50.852;20.632;2023-11-21T03:30:09;97328.47;;;6.91;100.00
21359;BME280;13506;50.852;20.632;2023-11-21T03:32:37;97328.38;;;6.93;100.00
21359;BME280;13506;50.852;20.632;2023-11-21T03:35:07;97332.03;;;6.90;100.00
21359;BME280;13506;50.852;20.632;2023-11-21T03:37:35;97341.47;;;6.91;100.00
21359;BME280;13506;50.852;20.632;2023-11-21T03:40:06;97335.25;;;6.94;100.00
21359;BME280;13506;50.852;20.632;2023-11-21T03:42:34;97338.78;;;6.93;100.00
21359;BME280;13506;50.852;20.632;2023-11-21T03:45:03;97339.59;;;6.93;100.00
21359;BME280;13506;50.852;20.632;2023-11-21T03:47:32;97343.97;;;6.93;100.00
21359;BME280;13506;50.852;20.632;2023-11-21T03:50:01;97340.44;;;6.94;100.00
21359;BME280;13506;50.852;20.632;2023-11-21T03:52:29;97343.88;;;6.94;100.00
21359;BME280;13506;50.852;20.632;2023-11-21T03:55:00;97340.44;;;6.94;100.00
21359;BME280;13506;50.852;20.632;2023-11-21T03:57:29;97345.66;;;6.94;100.00
21359;BME280;13506;50.852;20.632;2023-11-21T03:59:58;97342.34;;;6.92;100.00
21359;BME280;13506;50.852;20.632;2023-11-21T04:02:25;97343.16;;;6.92;100.00
21359;BME280;13506;50.852;20.632;2023-11-21T04:04:56;97341.38;;;6.93;100.00
21359;BME280;13506;50.852;20.632;2023-11-21T04:07:24;97352.59;;;6.93;100.00
21359;BME280;13506;50.852;20.632;2023-11-21T04:09:52;97345.75;;;6.92;100.00
21359;BME280;13506;50.852;20.632;2023-11-21T04:12:20;97351.66;;;6.94;100.00
21359;BME280;13506;50.852;20.632;2023-11-21T04:14:48;97350.94;;;6.92;100.00
21359;BME280;13506;50.852;20.632;2023-11-21T04:17:18;97350.00;;;6.93;100.00
21359;BME280;13506;50.852;20.632;2023-11-21T04:19:46;97346.56;;;6.93;100.00
21359;BME280;13506;50.852;20.632;2023-11-21T04:22:16;97344.09;;;6.91;100.00
21359;BME280;13506;50.852;20.632;2023-11-21T04:24:44;97338.41;;;6.86;100.00
21359;BME280;13506;50.852;20.632;2023-11-21T04:27:12;97340.94;;;6.75;100.00
21359;BME280;13506;50.852;20.632;2023-11-21T04:29:41;97332.97;;;6.65;100.00
21359;BME280;13506;50.852;20.632;2023-11-21T04:32:08;97328.75;;;6.51;100.00
21359;BME280;13506;50.852;20.632;2023-11-21T04:34:37;97330.66;;;6.49;100.00
21359;BME280;13506;50.852;20.632;2023-11-21T04:37:05;97341.50;;;6.43;100.00
21359;BME280;13506;50.852;20.632;2023-11-21T04:39:35;97344.59;;;6.48;100.00
21359;BME280;13506;50.852;20.632;2023-11-21T04:42:03;97346.03;;;6.52;100.00
21359;BME280;13506;50.852;20.632;2023-11-21T04:44:31;97345.78;;;6.55;100.00
21359;BME280;13506;50.852;20.632;2023-11-21T04:46:59;97363.06;;;6.56;100.00
21359;BME280;13506;50.852;20.632;2023-11-21T04:49:31;97349.00;;;6.59;100.00
21359;BME280;13506;50.852;20.632;2023-11-21T04:51:58;97367.81;;;6.62;100.00
21359;BME280;13506;50.852;20.632;2023-11-21T04:54:28;97373.22;;;6.59;100.00
21359;BME280;13506;50.852;20.632;2023-11-21T04:56:58;97381.19;;;6.69;100.00
21359;BME280;13506;50.852;20.632;2023-11-21T04:59:27;97387.22;;;6.69;100.00
21359;BME280;13506;50.852;20.632;2023-11-21T05:01:54;97397.59;;;6.69;100.00
21359;BME280;13506;50.852;20.632;2023-11-21T05:04:22;97388.88;;;6.71;100.00
21359;BME280;13506;50.852;20.632;2023-11-21T05:06:50;97390.75;;;6.68;100.00
21359;BME280;13506;50.852;20.632;2023-11-21T05:09:18;97394.91;;;6.71;100.00
21359;BME280;13506;50.852;20.632;2023-11-21T05:11:46;97401.25;;;6.67;100.00
21359;BME280;13506;50.852;20.632;2023-11-21T05:14:16;97409.69;;;6.71;100.00
21359;BME280;13506;50.852;20.632;2023-11-21T05:16:45;97406.34;;;6.68;100.00
21359;BME280;13506;50.852;20.632;2023-11-21T05:19:13;97403.75;;;6.68;100.00
21359;BME280;13506;50.852;20.632;2023-11-21T05:21:40;97404.81;;;6.66;100.00
21359;BME280;13506;50.852;20.632;2023-11-21T05:24:09;97407.00;;;6.59;100.00
21359;BME280;13506;50.852;20.632;2023-11-21T05:26:36;97405.88;;;6.51;100.00
21359;BME280;13506;50.852;20.632;2023-11-21T05:29:05;97400.28;;;6.44;100.00
21359;BME280;13506;50.852;20.632;2023-11-21T05:31:34;97415.16;;;6.42;100.00
21359;BME280;13506;50.852;20.632;2023-11-21T05:34:03;97416.53;;;6.35;100.00
21359;BME280;13506;50.852;20.632;2023-11-21T05:36:31;97417.47;;;6.34;100.00
21359;BME280;13506;50.852;20.632;2023-11-21T05:39:01;97419.47;;;6.30;100.00
21359;BME280;13506;50.852;20.632;2023-11-21T05:41:30;97414.38;;;6.28;100.00
21359;BME280;13506;50.852;20.632;2023-11-21T05:43:58;97420.63;;;6.26;100.00
21359;BME280;13506;50.852;20.632;2023-11-21T05:46:25;97423.00;;;6.16;100.00
21359;BME280;13506;50.852;20.632;2023-11-21T05:48:55;97419.06;;;6.11;100.00
21359;BME280;13506;50.852;20.632;2023-11-21T05:51:23;97420.09;;;6.08;100.00
21359;BME280;13506;50.852;20.632;2023-11-21T05:53:51;97422.00;;;5.93;100.00
21359;BME280;13506;50.852;20.632;2023-11-21T05:56:19;97424.59;;;5.93;100.00
21359;BME280;13506;50.852;20.632;2023-11-21T05:58:47;97422.00;;;5.55;100.00
21359;BME280;13506;50.852;20.632;2023-11-21T06:01:15;97429.69;;;5.03;100.00
21359;BME280;13506;50.852;20.632;2023-11-21T06:03:43;97436.44;;;5.19;100.00
21359;BME280;13506;50.852;20.632;2023-11-21T06:06:14;97442.63;;;5.03;100.00
21359;BME280;13506;50.852;20.632;2023-11-21T06:08:42;97442.63;;;5.03;100.00
21359;BME280;13506;50.852;20.632;2023-11-21T06:11:10;97453.53;;;5.09;100.00
21359;BME280;13506;50.852;20.632;2023-11-21T06:13:39;97462.44;;;4.90;100.00
21359;BME280;13506;50.852;20.632;2023-11-21T06:16:07;97460.78;;;5.03;100.00
21359;BME280;13506;50.852;20.632;2023-11-21T06:18:36;97470.47;;;5.14;100.00
21359;BME280;13506;50.852;20.632;2023-11-21T06:21:04;97477.53;;;5.25;100.00
21359;BME280;13506;50.852;20.632;2023-11-21T06:23:34;97477.97;;;5.32;100.00
21359;BME280;13506;50.852;20.632;2023-11-21T06:26:02;97484.84;;;5.33;100.00
21359;BME280;13506;50.852;20.632;2023-11-21T06:28:31;97493.44;;;5.33;100.00
21359;BME280;13506;50.852;20.632;2023-11-21T06:30:59;97495.81;;;5.36;100.00
21359;BME280;13506;50.852;20.632;2023-11-21T06:33:31;97493.53;;;5.32;100.00
21359;BME280;13506;50.852;20.632;2023-11-21T06:35:59;97487.69;;;5.28;100.00
21359;BME280;13506;50.852;20.632;2023-11-21T06:38:29;97493.94;;;5.25;100.00
21359;BME280;13506;50.852;20.632;2023-11-21T06:40:59;97482.25;;;5.33;100.00
21359;BME280;13506;50.852;20.632;2023-11-21T06:43:29;97498.97;;;5.14;100.00
21359;BME280;13506;50.852;20.632;2023-11-21T06:45:57;97492.38;;;5.23;100.00
21359;BME280;13506;50.852;20.632;2023-11-21T06:48:26;97494.09;;;5.10;100.00
21359;BME280;13506;50.852;20.632;2023-11-21T06:50:53;97497.50;;;5.10;100.00
21359;BME280;13506;50.852;20.632;2023-11-21T06:53:21;97494.63;;;5.15;100.00
21359;BME280;13506;50.852;20.632;2023-11-21T06:55:49;97493.69;;;5.16;100.00
21359;BME280;13506;50.852;20.632;2023-11-21T06:58:19;97493.09;;;5.25;100.00
21359;BME280;13506;50.852;20.632;2023-11-21T07:00:46;97500.97;;;5.23;100.00
21359;BME280;13506;50.852;20.632;2023-11-21T07:03:16;97506.81;;;5.27;100.00
21359;BME280;13506;50.852;20.632;2023-11-21T07:05:46;97510.78;;;5.05;100.00
21359;BME280;13506;50.852;20.632;2023-11-21T07:08:14;97511.88;;;5.01;100.00
21359;BME280;13506;50.852;20.632;2023-11-21T07:10:42;97507.81;;;4.97;100.00
21359;BME280;13506;50.852;20.632;2023-11-21T07:13:10;97511.63;;;4.92;100.00
21359;BME280;13506;50.852;20.632;2023-11-21T07:15:40;97516.50;;;4.96;100.00
21359;BME280;13506;50.852;20.632;2023-11-21T07:18:08;97517.91;;;4.88;100.00
21359;BME280;13506;50.852;20.632;2023-11-21T07:20:36;97518.38;;;4.94;100.00
21359;BME280;13506;50.852;20.632;2023-11-21T07:23:04;97531.44;;;4.93;100.00
21359;BME280;13506;50.852;20.632;2023-11-21T07:25:32;97516.44;;;4.98;100.00
21359;BME280;13506;50.852;20.632;2023-11-21T07:28:00;97521.31;;;4.88;100.00
21359;BME280;13506;50.852;20.632;2023-11-21T07:30:28;97526.72;;;4.99;100.00
21359;BME280;13506;50.852;20.632;2023-11-21T07:32:58;97536.69;;;5.05;100.00
21359;BME280;13506;50.852;20.632;2023-11-21T07:35:26;97536.00;;;5.16;100.00
21359;BME280;13506;50.852;20.632;2023-11-21T07:37:54;97533.50;;;5.15;100.00
21359;BME280;13506;50.852;20.632;2023-11-21T07:40:22;97537.78;;;5.16;100.00
21359;BME280;13506;50.852;20.632;2023-11-21T07:42:50;97548.28;;;5.27;100.00
21359;BME280;13506;50.852;20.632;2023-11-21T07:45:18;97551.72;;;5.27;100.00
21359;BME280;13506;50.852;20.632;2023-11-21T07:47:46;97552.00;;;5.23;100.00
21359;BME280;13506;50.852;20.632;2023-11-21T07:50:15;97558.84;;;5.24;100.00
21359;BME280;13506;50.852;20.632;2023-11-21T07:52:44;97542.38;;;5.25;100.00
21359;BME280;13506;50.852;20.632;2023-11-21T07:55:12;97549.19;;;5.26;100.00
21359;BME280;13506;50.852;20.632;2023-11-21T07:57:40;97553.13;;;5.19;100.00
21359;BME280;13506;50.852;20.632;2023-11-21T08:00:09;97549.44;;;5.09;100.00
21359;BME280;13506;50.852;20.632;2023-11-21T08:02:42;97554.28;;;5.00;100.00
21359;BME280;13506;50.852;20.632;2023-11-21T08:05:12;97561.22;;;4.71;100.00
21359;BME280;13506;50.852;20.632;2023-11-21T08:07:41;97552.28;;;4.48;100.00
21359;BME280;13506;50.852;20.632;2023-11-21T08:10:10;97552.94;;;4.37;100.00
21359;BME280;13506;50.852;20.632;2023-11-21T08:12:38;97552.06;;;4.08;100.00
21359;BME280;13506;50.852;20.632;2023-11-21T08:15:07;97550.22;;;4.10;100.00
21359;BME280;13506;50.852;20.632;2023-11-21T08:17:35;97557.78;;;4.13;100.00
21359;BME280;13506;50.852;20.632;2023-11-21T08:20:04;97561.94;;;4.01;100.00
21359;BME280;13506;50.852;20.632;2023-11-21T08:22:32;97573.03;;;4.18;100.00
21359;BME280;13506;50.852;20.632;2023-11-21T08:25:02;97579.47;;;4.41;100.00
21359;BME280;13506;50.852;20.632;2023-11-21T08:27:31;97580.75;;;4.62;100.00
21359;BME280;13506;50.852;20.632;2023-11-21T08:29:59;97580.75;;;4.77;100.00
21359;BME280;13506;50.852;20.632;2023-11-21T08:32:27;97586.22;;;4.86;100.00
21359;BME280;13506;50.852;20.632;2023-11-21T08:34:56;97595.22;;;4.95;100.00
21359;BME280;13506;50.852;20.632;2023-11-21T08:37:24;97603.16;;;5.06;100.00
21359;BME280;13506;50.852;20.632;2023-11-21T08:39:53;97593.34;;;5.12;100.00
21359;BME280;13506;50.852;20.632;2023-11-21T08:42:23;97604.63;;;5.11;100.00
21359;BME280;13506;50.852;20.632;2023-11-21T08:44:51;97592.31;;;5.14;100.00
21359;BME280;13506;50.852;20.632;2023-11-21T08:47:19;97608.69;;;5.15;100.00
21359;BME280;13506;50.852;20.632;2023-11-21T08:49:46;97606.31;;;5.12;100.00
21359;BME280;13506;50.852;20.632;2023-11-21T08:52:14;97600.63;;;5.19;100.00
21359;BME280;13506;50.852;20.632;2023-11-21T08:54:43;97611.72;;;5.21;100.00
21359;BME280;13506;50.852;20.632;2023-11-21T08:57:12;97608.91;;;5.12;100.00
21359;BME280;13506;50.852;20.632;2023-11-21T08:59:41;97598.63;;;5.10;100.00
21359;BME280;13506;50.852;20.632;2023-11-21T09:02:09;97607.13;;;5.12;100.00
21359;BME280;13506;50.852;20.632;2023-11-21T09:04:38;97603.34;;;5.18;100.00
21359;BME280;13506;50.852;20.632;2023-11-21T09:07:06;97606.91;;;5.15;100.00
21359;BME280;13506;50.852;20.632;2023-11-21T09:09:33;97601.34;;;5.21;100.00
21359;BME280;13506;50.852;20.632;2023-11-21T09:12:01;97606.09;;;5.15;100.00
21359;BME280;13506;50.852;20.632;2023-11-21T09:14:29;97608.31;;;5.21;100.00
21359;BME280;13506;50.852;20.632;2023-11-21T09:16:59;97610.91;;;5.06;100.00
21359;BME280;13506;50.852;20.632;2023-11-21T09:19:27;97610.56;;;4.98;100.00
21359;BME280;13506;50.852;20.632;2023-11-21T09:21:55;97606.41;;;4.96;100.00
21359;BME280;13506;50.852;20.632;2023-11-21T09:24:23;97600.56;;;4.63;100.00
21359;BME280;13506;50.852;20.632;2023-11-21T09:26:53;97596.75;;;4.83;100.00
21359;BME280;13506;50.852;20.632;2023-11-21T09:29:20;97600.38;;;4.95;100.00
21359;BME280;13506;50.852;20.632;2023-11-21T09:31:49;97604.81;;;5.08;100.00
21359;BME280;13506;50.852;20.632;2023-11-21T09:34:19;97601.50;;;5.05;100.00
21359;BME280;13506;50.852;20.632;2023-11-21T09:36:47;97596.69;;;4.99;100.00
21359;BME280;13506;50.852;20.632;2023-11-21T09:39:15;97601.28;;;5.09;100.00
21359;BME280;13506;50.852;20.632;2023-11-21T09:41:49;97611.50;;;5.12;100.00
21359;BME280;13506;50.852;20.632;2023-11-21T09:44:20;97615.00;;;5.11;100.00
21359;BME280;13506;50.852;20.632;2023-11-21T09:46:53;97613.69;;;4.89;100.00
21359;BME280;13506;50.852;20.632;2023-11-21T09:49:24;97617.97;;;4.76;100.00
21359;BME280;13506;50.852;20.632;2023-11-21T09:51:55;97625.28;;;4.69;100.00
21359;BME280;13506;50.852;20.632;2023-11-21T09:54:23;97615.38;;;4.76;100.00
21359;BME280;13506;50.852;20.632;2023-11-21T09:56:53;97611.47;;;4.54;100.00
21359;BME280;13506;50.852;20.632;2023-11-21T09:59:21;97613.78;;;4.59;100.00
21359;BME280;13506;50.852;20.632;2023-11-21T10:01:51;97601.97;;;4.69;100.00
21359;BME280;13506;50.852;20.632;2023-11-21T10:04:18;97613.16;;;4.70;100.00
21359;BME280;13506;50.852;20.632;2023-11-21T10:06:51;97612.50;;;4.80;100.00
21359;BME280;13506;50.852;20.632;2023-11-21T10:09:20;97604.97;;;4.90;100.00
21359;BME280;13506;50.852;20.632;2023-11-21T10:11:50;97612.41;;;4.82;100.00
21359;BME280;13506;50.852;20.632;2023-11-21T10:14:19;97609.28;;;4.91;100.00
21359;BME280;13506;50.852;20.632;2023-11-21T10:16:53;97603.91;;;4.94;100.00
21359;BME280;13506;50.852;20.632;2023-11-21T10:19:22;97607.97;;;4.98;100.00
21359;BME280;13506;50.852;20.632;2023-11-21T10:21:52;97607.22;;;4.96;100.00
21359;BME280;13506;50.852;20.632;2023-11-21T10:24:20;97596.56;;;4.86;100.00
21359;BME280;13506;50.852;20.632;2023-11-21T10:26:49;97603.16;;;5.06;100.00
21359;BME280;13506;50.852;20.632;2023-11-21T10:29:18;97596.47;;;5.17;100.00
21359;BME280;13506;50.852;20.632;2023-11-21T10:31:50;97597.50;;;5.14;100.00
21359;BME280;13506;50.852;20.632;2023-11-21T10:34:20;97602.31;;;4.77;100.00
21359;BME280;13506;50.852;20.632;2023-11-21T10:36:48;97604.53;;;4.40;100.00
21359;BME280;13506;50.852;20.632;2023-11-21T10:39:18;97603.59;;;4.56;100.00
21359;BME280;13506;50.852;20.632;2023-11-21T10:41:46;97608.72;;;4.86;100.00
21359;BME280;13506;50.852;20.632;2023-11-21T10:44:15;97602.59;;;4.73;100.00
21359;BME280;13506;50.852;20.632;2023-11-21T10:46:47;97604.25;;;4.88;100.00
21359;BME280;13506;50.852;20.632;2023-11-21T10:49:17;97609.94;;;4.95;100.00
21359;BME280;13506;50.852;20.632;2023-11-21T10:51:46;97607.50;;;5.06;100.00
21359;BME280;13506;50.852;20.632;2023-11-21T10:54:19;97611.28;;;5.15;100.00
21359;BME280;13506;50.852;20.632;2023-11-21T10:56:50;97611.88;;;5.05;100.00
21359;BME280;13506;50.852;20.632;2023-11-21T10:59:19;97617.41;;;5.14;100.00
21359;BME280;13506;50.852;20.632;2023-11-21T11:01:51;97604.97;;;5.19;100.00
21359;BME280;13506;50.852;20.632;2023-11-21T11:04:20;97612.47;;;5.23;100.00
21359;BME280;13506;50.852;20.632;2023-11-21T11:06:54;97609.59;;;5.28;100.00
21359;BME280;13506;50.852;20.632;2023-11-21T11:09:24;97608.28;;;5.35;100.00
21359;BME280;13506;50.852;20.632;2023-11-21T11:11:52;97606.47;;;5.23;100.00
21359;BME280;13506;50.852;20.632;2023-11-21T11:14:20;97605.34;;;5.27;100.00
21359;BME280;13506;50.852;20.632;2023-11-21T11:16:54;97607.94;;;5.27;100.00
21359;BME280;13506;50.852;20.632;2023-11-21T11:19:23;97607.66;;;5.17;100.00
21359;BME280;13506;50.852;20.632;2023-11-21T11:22:00;97616.75;;;5.24;100.00
21359;BME280;13506;50.852;20.632;2023-11-21T11:27:37;97617.41;;;5.14;100.00
21359;BME280;13506;50.852;20.632;2023-11-21T11:30:17;97617.13;;;5.18;100.00
21359;BME280;13506;50.852;20.632;2023-11-21T11:32:59;97609.63;;;5.14;100.00
21359;BME280;13506;50.852;20.632;2023-11-21T11:35:37;97620.63;;;5.17;100.00
21359;BME280;13506;50.852;20.632;2023-11-21T11:38:10;97618.31;;;5.13;100.00
21359;BME280;13506;50.852;20.632;2023-11-21T11:40:45;97624.06;;;5.18;100.00
21359;BME280;13506;50.852;20.632;2023-11-21T11:43:14;97621.47;;;5.18;100.00
21359;BME280;13506;50.852;20.632;2023-11-21T11:45:52;97624.97;;;5.17;100.00
21359;BME280;13506;50.852;20.632;2023-11-21T11:48:23;97622.00;;;5.23;100.00
21359;BME280;13506;50.852;20.632;2023-11-21T11:51:05;97621.63;;;5.29;100.00
21359;BME280;13506;50.852;20.632;2023-11-21T11:53:39;97626.31;;;4.95;100.00
21359;BME280;13506;50.852;20.632;2023-11-21T11:56:23;97624.06;;;5.18;100.00
21359;BME280;13506;50.852;20.632;2023-11-21T11:58:54;97631.56;;;5.22;100.00
21359;BME280;13506;50.852;20.632;2023-11-21T12:01:24;97634.25;;;5.21;100.00
21359;BME280;13506;50.852;20.632;2023-11-21T12:04:24;97636.63;;;5.24;100.00
21359;BME280;13506;50.852;20.632;2023-11-21T12:07:01;97637.84;;;5.33;100.00
21359;BME280;13506;50.852;20.632;2023-11-21T12:09:31;97646.09;;;5.25;100.00
21359;BME280;13506;50.852;20.632;2023-11-21T12:12:01;97641.63;;;5.27;100.00
21359;BME280;13506;50.852;20.632;2023-11-21T12:14:31;97640.63;;;5.30;100.00
21359;BME280;13506;50.852;20.632;2023-11-21T12:16:59;97637.28;;;5.27;100.00
21359;BME280;13506;50.852;20.632;2023-11-21T12:19:29;97640.63;;;5.30;100.00
21359;BME280;13506;50.852;20.632;2023-11-21T12:21:57;97644.69;;;5.34;100.00
21359;BME280;13506;50.852;20.632;2023-11-21T12:24:25;97644.97;;;5.29;100.00
21359;BME280;13506;50.852;20.632;2023-11-21T12:26:55;97656.16;;;5.30;100.00
21359;BME280;13506;50.852;20.632;2023-11-21T12:29:24;97654.53;;;5.29;100.00
21359;BME280;13506;50.852;20.632;2023-11-21T12:31:52;97654.81;;;5.10;100.00
21359;BME280;13506;50.852;20.632;2023-11-21T12:34:20;97653.78;;;5.12;100.00
21359;BME280;13506;50.852;20.632;2023-11-21T12:36:50;97648.78;;;5.09;100.00
21359;BME280;13506;50.852;20.632;2023-11-21T12:39:21;97663.69;;;4.91;100.00
21359;BME280;13506;50.852;20.632;2023-11-21T12:41:49;97660.63;;;4.84;100.00
21359;BME280;13506;50.852;20.632;2023-11-21T12:44:17;97668.38;;;4.70;100.00
21359;BME280;13506;50.852;20.632;2023-11-21T12:46:47;97670.59;;;4.76;100.00
21359;BME280;13506;50.852;20.632;2023-11-21T12:49:15;97677.63;;;4.74;100.00
21359;BME280;13506;50.852;20.632;2023-11-21T12:51:45;97675.84;;;4.60;100.00
21359;BME280;13506;50.852;20.632;2023-11-21T12:54:13;97677.69;;;4.44;100.00
21359;BME280;13506;50.852;20.632;2023-11-21T12:56:44;97678.53;;;4.44;100.00
21359;BME280;13506;50.852;20.632;2023-11-21T12:59:14;97683.53;;;4.17;100.00
21359;BME280;13506;50.852;20.632;2023-11-21T13:01:45;97687.91;;;4.01;100.00
21359;BME280;13506;50.852;20.632;2023-11-21T13:04:15;97682.56;;;4.04;100.00